createdAt,value
2022-08-09T00:00:11.160Z,3.40
2022-08-09T00:02:47.325Z,3.17
2022-08-09T00:06:18.308Z,3.22
2022-08-09T00:08:31.951Z,3.28
2022-08-09T00:11:06.064Z,3.72
2022-08-09T00:13:50.292Z,3.10
2022-08-09T00:16:26.389Z,3.25
2022-08-09T00:19:09.229Z,2.97
2022-08-09T00:21:38.913Z,3.58
2022-08-09T00:24:24.820Z,3.50
2022-08-09T00:26:55.504Z,4.32
2022-08-09T00:29:39.639Z,3.90
2022-08-09T00:32:26.793Z,3.65
2022-08-09T00:35:03.408Z,4.43
2022-08-09T00:37:32.520Z,4.82
2022-08-09T00:40:10.247Z,4.43
2022-08-09T00:44:10.556Z,4.22
2022-08-09T00:45:34.749Z,4.47
2022-08-09T00:48:04.019Z,5.03
2022-08-09T00:50:37.775Z,4.53
2022-08-09T00:53:10.175Z,4.57
2022-08-09T00:56:04.420Z,4.95
2022-08-09T00:58:27.662Z,5.47
2022-08-09T01:00:57.031Z,5.13
2022-08-09T01:03:45.617Z,4.50
2022-08-09T01:06:20.987Z,4.97
2022-08-09T01:09:11.014Z,6.07
2022-08-09T01:11:55.617Z,5.35
2022-08-09T01:14:37.368Z,5.25
2022-08-09T01:17:12.323Z,5.03
2022-08-09T01:20:02.721Z,4.63
2022-08-09T01:22:46.547Z,5.03
2022-08-09T01:25:25.314Z,5.65
2022-08-09T01:27:54.463Z,6.07
2022-08-09T01:30:28.749Z,5.05
2022-08-09T01:33:10.092Z,5.03
2022-08-09T01:35:59.812Z,5.22
2022-08-09T01:38:31.757Z,4.60
2022-08-09T01:41:07.073Z,5.18
2022-08-09T01:43:48.025Z,5.15
2022-08-09T01:46:26.535Z,4.65
2022-08-09T01:48:59.939Z,4.35
2022-08-09T01:51:44.638Z,4.80
2022-08-09T01:54:33.551Z,4.50
2022-08-09T01:57:08.129Z,4.32
2022-08-09T01:59:50.781Z,5.30
2022-08-09T02:02:31.035Z,5.53
2022-08-09T02:05:05.466Z,4.20
2022-08-09T02:08:35.960Z,4.95
2022-08-09T02:10:51.146Z,5.65
2022-08-09T02:13:22.168Z,4.90
2022-08-09T02:15:56.401Z,4.88
2022-08-09T02:18:26.941Z,4.78
2022-08-09T02:21:09.193Z,5.63
2022-08-09T02:23:43.244Z,4.72
2022-08-09T02:26:26.834Z,5.03
2022-08-09T02:29:06.758Z,5.28
2022-08-09T02:31:39.254Z,5.53
2022-08-09T02:34:40.400Z,4.90
2022-08-09T02:37:06.789Z,5.30
2022-08-09T02:39:45.104Z,5.07
2022-08-09T02:42:24.863Z,5.35
2022-08-09T02:45:08.505Z,4.93
2022-08-09T02:47:58.102Z,5.32
2022-08-09T02:50:38.356Z,5.47
2022-08-09T02:53:17.402Z,5.97
2022-08-09T02:55:59.272Z,5.07
2022-08-09T02:58:35.807Z,4.40
2022-08-09T03:01:11.336Z,5.45
2022-08-09T03:04:17.873Z,5.18
2022-08-09T03:06:39.257Z,5.68
2022-08-09T03:09:12.509Z,4.88
2022-08-09T03:12:06.031Z,5.10
2022-08-09T03:14:32.117Z,5.47
2022-08-09T03:17:01.717Z,4.45
2022-08-09T03:19:59.384Z,4.55
2022-08-09T03:22:25.738Z,5.03
2022-08-09T03:25:25.870Z,5.15
2022-08-09T03:27:59.410Z,5.18
2022-08-09T03:30:30.056Z,4.63
2022-08-09T03:33:18.574Z,4.65
2022-08-09T03:36:12.430Z,5.70
2022-08-09T03:38:41.774Z,5.40
2022-08-09T03:41:16.064Z,5.07
2022-08-09T03:44:03.831Z,6.03
2022-08-09T03:46:33.600Z,5.47
2022-08-09T03:49:08.012Z,5.32
2022-08-09T03:51:58.175Z,5.43
2022-08-09T03:54:32.148Z,5.93
2022-08-09T03:57:04.538Z,5.97
2022-08-09T03:59:43.187Z,5.95
2022-08-09T04:02:28.229Z,5.68
2022-08-09T04:05:05.809Z,5.28
2022-08-09T04:07:53.436Z,6.28
2022-08-09T04:10:28.823Z,7.00
2022-08-09T04:13:01.323Z,5.57
2022-08-09T04:16:17.327Z,6.25
2022-08-09T04:18:21.209Z,5.80
2022-08-09T04:20:49.382Z,4.63
2022-08-09T04:23:17.767Z,6.13
2022-08-09T04:25:51.678Z,5.88
2022-08-09T04:28:33.814Z,6.00
2022-08-09T04:31:09.865Z,6.35
2022-08-09T04:33:51.539Z,6.40
2022-08-09T04:36:23.435Z,7.00
2022-08-09T04:38:53.339Z,8.25
2022-08-09T04:41:23.810Z,7.10
2022-08-09T04:44:06.984Z,7.22
2022-08-09T04:46:58.676Z,7.40
2022-08-09T04:49:52.574Z,7.82
2022-08-09T04:52:27.710Z,10.75
2022-08-09T04:55:00.250Z,8.43
2022-08-09T04:57:54.328Z,7.70
2022-08-09T05:00:17.181Z,8.23
2022-08-09T05:02:51.896Z,7.55
2022-08-09T05:05:32.279Z,8.65
2022-08-09T05:08:08.833Z,8.43
2022-08-09T05:10:36.773Z,9.20
2022-08-09T05:13:04.479Z,9.45
2022-08-09T05:15:43.190Z,9.60
2022-08-09T05:18:39.732Z,10.07
2022-08-09T05:21:20.751Z,11.50
2022-08-09T05:23:59.699Z,8.85
2022-08-09T05:26:45.582Z,8.88
2022-08-09T05:29:24.146Z,9.38
2022-08-09T05:32:00.578Z,9.90
2022-08-09T05:34:32.658Z,9.98
2022-08-09T05:37:06.047Z,11.73
2022-08-09T05:39:42.648Z,11.07
2022-08-09T05:42:17.723Z,13.32
2022-08-09T05:44:55.841Z,12.23
2022-08-09T05:47:27.324Z,11.70
2022-08-09T05:50:35.163Z,12.50
2022-08-09T05:52:53.575Z,10.95
2022-08-09T05:55:24.282Z,12.07
2022-08-09T05:57:56.627Z,12.45
2022-08-09T06:00:30.388Z,14.43
2022-08-09T06:03:03.421Z,13.13
2022-08-09T06:05:56.970Z,14.35
2022-08-09T06:08:24.334Z,11.98
2022-08-09T06:10:56.914Z,13.18
2022-08-09T06:13:25.500Z,14.40
2022-08-09T06:15:56.124Z,15.45
2022-08-09T06:18:25.433Z,13.38
2022-08-09T06:20:57.919Z,14.73
2022-08-09T06:23:58.918Z,13.57
2022-08-09T06:26:21.198Z,14.30
2022-08-09T06:28:59.287Z,15.10
2022-08-09T06:31:39.680Z,16.40
2022-08-09T06:34:19.152Z,15.85
2022-08-09T06:36:46.630Z,15.65
2022-08-09T06:39:14.786Z,14.05
2022-08-09T06:42:09.382Z,15.07
2022-08-09T06:44:33.347Z,15.48
2022-08-09T06:47:00.691Z,15.65
2022-08-09T06:50:11.364Z,14.30
2022-08-09T06:52:17.916Z,13.95
2022-08-09T06:54:45.858Z,14.55
2022-08-09T06:57:14.290Z,13.65
2022-08-09T07:00:48.977Z,13.88
2022-08-09T07:02:31.879Z,13.23
2022-08-09T07:05:00.462Z,15.40
2022-08-09T07:08:00.308Z,13.45
2022-08-09T07:10:22.520Z,13.18
2022-08-09T07:12:58.225Z,12.48
2022-08-09T07:16:39.741Z,12.95
2022-08-09T07:18:16.635Z,11.85
2022-08-09T07:20:44.894Z,11.95
2022-08-09T07:23:19.032Z,13.18
2022-08-09T07:25:52.121Z,10.98
2022-08-09T07:28:26.115Z,12.10
2022-08-09T07:30:55.758Z,10.30
2022-08-09T07:33:23.373Z,10.02
2022-08-09T07:35:54.707Z,9.48
2022-08-09T07:38:23.157Z,10.10
2022-08-09T07:41:10.034Z,11.20
2022-08-09T07:43:50.051Z,9.15
2022-08-09T07:46:25.327Z,9.40
2022-08-09T07:48:59.445Z,9.43
2022-08-09T07:52:06.085Z,10.60
2022-08-09T07:54:27.690Z,9.07
2022-08-09T07:56:58.614Z,10.68
2022-08-09T07:59:34.599Z,9.75
2022-08-09T08:02:20.256Z,8.52
2022-08-09T08:04:48.974Z,11.15
2022-08-09T08:08:06.654Z,9.00
2022-08-09T08:10:10.827Z,8.77
2022-08-09T08:12:46.378Z,8.50
2022-08-09T08:15:24.346Z,8.95
2022-08-09T08:17:58.018Z,9.13
2022-08-09T08:20:32.374Z,8.73
2022-08-09T08:23:15.974Z,7.82
2022-08-09T08:25:48.505Z,6.78
2022-08-09T08:28:31.942Z,8.93
2022-08-09T08:31:10.508Z,7.05
2022-08-09T08:33:53.372Z,8.43
2022-08-09T08:36:29.109Z,9.10
2022-08-09T08:38:57.862Z,8.73
2022-08-09T08:41:41.829Z,8.02
2022-08-09T08:44:14.722Z,7.00
2022-08-09T08:46:59.906Z,6.13
2022-08-09T08:49:38.934Z,5.97
2022-08-09T08:52:58.521Z,5.72
2022-08-09T08:55:19.139Z,6.35
2022-08-09T08:57:57.343Z,6.55
2022-08-09T09:00:34.338Z,5.78
2022-08-09T09:03:08.773Z,5.53
2022-08-09T09:06:00.679Z,7.25
2022-08-09T09:08:40.180Z,5.95
2022-08-09T09:11:17.393Z,6.15
2022-08-09T09:13:56.307Z,6.03
2022-08-09T09:16:30.476Z,5.38
2022-08-09T09:19:37.598Z,7.13
2022-08-09T09:22:11.953Z,6.38
2022-08-09T09:24:45.907Z,5.82
2022-08-09T09:28:02.998Z,4.68
2022-08-09T09:30:26.144Z,4.60
2022-08-09T09:33:16.526Z,4.20
2022-08-09T09:36:02.433Z,3.50
2022-08-09T09:38:48.955Z,3.60
2022-08-09T09:41:33.026Z,3.97
2022-08-09T09:44:27.869Z,3.83
2022-08-09T09:47:10.528Z,3.40
2022-08-09T09:50:06.918Z,3.22
2022-08-09T09:52:52.447Z,2.42
2022-08-09T09:55:32.100Z,2.47
2022-08-09T09:58:17.435Z,3.22
2022-08-09T10:00:58.939Z,3.08
2022-08-09T10:03:40.447Z,2.75
2022-08-09T10:06:12.647Z,3.03
2022-08-09T10:08:55.211Z,2.30
2022-08-09T10:12:04.395Z,2.97
2022-08-09T10:14:33.604Z,2.95
2022-08-09T10:17:40.687Z,2.90
2022-08-09T10:20:00.228Z,2.75
2022-08-09T10:22:40.236Z,3.05
2022-08-09T10:25:11.763Z,2.63
2022-08-09T10:27:57.198Z,3.15
2022-08-09T10:32:13.710Z,2.83
2022-08-09T10:34:05.282Z,2.85
2022-08-09T10:36:11.669Z,2.83
2022-08-09T10:38:56.326Z,2.72
2022-08-09T10:41:27.981Z,3.03
2022-08-09T10:43:59.743Z,3.30
2022-08-09T10:47:20.589Z,3.00
2022-08-09T10:50:30.862Z,3.25
2022-08-09T10:53:19.608Z,3.03
2022-08-09T10:55:58.235Z,3.17
2022-08-09T10:58:37.117Z,2.72
2022-08-09T11:03:11.028Z,2.50
2022-08-09T11:04:32.629Z,2.75
2022-08-09T11:07:01.156Z,2.30
2022-08-09T11:09:47.732Z,2.58
2022-08-09T11:12:29.389Z,2.70
2022-08-09T11:15:24.821Z,2.33
2022-08-09T11:18:03.765Z,3.58
2022-08-09T11:20:47.180Z,2.78
2022-08-09T11:23:23.872Z,2.58
2022-08-09T11:26:00.482Z,2.70
2022-08-09T11:28:38.826Z,3.90
2022-08-09T11:31:50.453Z,4.18
2022-08-09T11:34:42.846Z,3.42
2022-08-09T11:37:24.527Z,3.00
2022-08-09T11:40:06.567Z,3.35
2022-08-09T11:42:48.445Z,3.00
2022-08-09T11:45:21.632Z,2.80
2022-08-09T11:47:52.383Z,3.67
2022-08-09T11:50:54.953Z,3.13
2022-08-09T11:53:57.716Z,2.97
2022-08-09T11:56:02.958Z,3.58
2022-08-09T11:58:33.804Z,2.75
2022-08-09T12:01:08.891Z,3.30
2022-08-09T12:03:57.400Z,3.00
2022-08-09T12:06:32.428Z,2.95
2022-08-09T12:09:19.250Z,2.90
2022-08-09T12:12:12.148Z,3.20
2022-08-09T12:15:07.745Z,3.38
2022-08-09T12:17:34.417Z,3.90
2022-08-09T12:20:21.853Z,3.30
2022-08-09T12:22:56.181Z,2.58
2022-08-09T12:25:34.714Z,3.05
2022-08-09T12:29:15.302Z,3.17
2022-08-09T12:31:11.115Z,2.92
2022-08-09T12:33:58.931Z,2.95
2022-08-09T12:36:31.387Z,2.80
2022-08-09T12:39:00.621Z,3.10
2022-08-09T12:41:39.294Z,3.00
2022-08-09T12:44:10.175Z,2.72
2022-08-09T12:46:48.934Z,2.90
2022-08-09T12:49:18.612Z,3.63
2022-08-09T12:52:02.406Z,2.35
2022-08-09T12:56:12.013Z,2.78
2022-08-09T12:57:46.342Z,3.05
2022-08-09T13:00:40.736Z,2.65
2022-08-09T13:03:08.589Z,2.58
2022-08-09T13:06:14.650Z,2.78
2022-08-09T13:08:40.907Z,2.72
2022-08-09T13:11:22.706Z,2.97
2022-08-09T13:14:42.230Z,2.92
2022-08-09T13:16:51.342Z,2.10
2022-08-09T13:20:07.170Z,2.55
2022-08-09T13:22:37.349Z,2.33
2022-08-09T13:25:14.370Z,2.08
2022-08-09T13:27:54.712Z,2.03
2022-08-09T13:31:11.085Z,2.38
2022-08-09T13:33:23.618Z,3.13
2022-08-09T13:36:38.920Z,2.40
2022-08-09T13:38:56.556Z,2.10
2022-08-09T13:41:57.992Z,2.47
2022-08-09T13:44:17.055Z,2.45
2022-08-09T13:47:26.446Z,2.72
2022-08-09T13:49:38.057Z,2.47
2022-08-09T13:52:22.925Z,2.65
2022-08-09T13:54:59.102Z,2.30
2022-08-09T13:57:35.632Z,2.30
2022-08-09T14:00:12.574Z,2.50
2022-08-09T14:03:02.159Z,2.63
2022-08-09T14:06:00.089Z,2.38
2022-08-09T14:08:18.257Z,2.35
2022-08-09T14:10:52.424Z,2.33
2022-08-09T14:14:15.945Z,2.83
2022-08-09T14:16:15.867Z,2.47
2022-08-09T14:18:49.471Z,2.17
2022-08-09T14:21:37.865Z,2.05
2022-08-09T14:24:18.284Z,1.75
2022-08-09T14:26:51.173Z,2.30
2022-08-09T14:30:15.156Z,2.05
2022-08-09T14:32:13.091Z,2.88
2022-08-09T14:34:43.699Z,2.40
2022-08-09T14:37:12.463Z,2.50
2022-08-09T14:39:46.671Z,2.35
2022-08-09T14:42:30.166Z,2.92
2022-08-09T14:46:38.826Z,2.22
2022-08-09T14:47:57.138Z,2.22
2022-08-09T14:50:27.923Z,2.47
2022-08-09T14:52:56.849Z,2.33
2022-08-09T14:55:25.345Z,2.20
2022-08-09T14:57:56.758Z,2.13
2022-08-09T15:00:25.161Z,2.30
2022-08-09T15:02:58.328Z,2.25
2022-08-09T15:05:29.598Z,2.20
2022-08-09T15:07:58.409Z,2.58
2022-08-09T15:10:26.981Z,2.75
2022-08-09T15:12:55.817Z,1.92
2022-08-09T15:15:24.292Z,2.53
2022-08-09T15:17:56.847Z,1.83
2022-08-09T15:21:57.605Z,2.40
2022-08-09T15:24:00.707Z,2.53
2022-08-09T15:26:02.257Z,2.42
2022-08-09T15:28:33.209Z,2.83
2022-08-09T15:31:13.335Z,2.13
2022-08-09T15:34:17.738Z,2.38
2022-08-09T15:36:33.141Z,2.40
2022-08-09T15:39:01.019Z,2.13
2022-08-09T15:41:31.586Z,2.20
2022-08-09T15:44:01.822Z,2.40
2022-08-09T15:46:33.165Z,2.70
2022-08-09T15:49:21.742Z,2.15
2022-08-09T15:52:03.943Z,2.60
2022-08-09T15:54:49.492Z,2.55
2022-08-09T15:57:18.985Z,1.90
2022-08-09T16:00:07.919Z,2.20
2022-08-09T16:02:35.378Z,2.30
2022-08-09T16:05:04.423Z,1.88
2022-08-09T16:07:39.487Z,2.95
2022-08-09T16:10:17.328Z,2.45
2022-08-09T16:13:02.457Z,2.58
2022-08-09T16:16:11.421Z,2.28
2022-08-09T16:18:18.189Z,2.53
2022-08-09T16:20:46.697Z,2.03
2022-08-09T16:23:14.151Z,2.58
2022-08-09T16:25:42.262Z,1.90
2022-08-09T16:28:17.285Z,2.67
2022-08-09T16:30:54.134Z,2.25
2022-08-09T16:33:27.473Z,2.08
2022-08-09T16:36:03.080Z,2.85
2022-08-09T16:38:36.055Z,2.53
2022-08-09T16:41:04.492Z,2.50
2022-08-09T16:43:40.591Z,2.38
2022-08-09T16:46:12.416Z,2.22
2022-08-09T16:48:55.958Z,2.80
2022-08-09T16:51:29.365Z,2.55
2022-08-09T16:54:25.840Z,2.92
2022-08-09T16:56:49.069Z,2.78
2022-08-09T16:59:17.243Z,2.55
2022-08-09T17:01:51.095Z,2.22
2022-08-09T17:04:28.037Z,2.60
2022-08-09T17:08:41.282Z,2.45
2022-08-09T17:09:47.492Z,2.58
2022-08-09T17:12:16.182Z,1.95
2022-08-09T17:14:49.121Z,2.20
2022-08-09T17:17:27.223Z,3.33
2022-08-09T17:20:28.318Z,3.15
2022-08-09T17:22:51.972Z,3.00
2022-08-09T17:25:30.387Z,2.92
2022-08-09T17:28:03.460Z,2.67
2022-08-09T17:30:31.767Z,2.78
2022-08-09T17:33:22.611Z,2.72
2022-08-09T17:35:50.701Z,2.67
2022-08-09T17:38:32.061Z,3.47
2022-08-09T17:41:02.854Z,3.35
2022-08-09T17:43:37.433Z,3.63
2022-08-09T17:46:09.429Z,3.55
2022-08-09T17:48:52.001Z,3.13
2022-08-09T17:51:20.920Z,2.58
2022-08-09T17:53:54.713Z,3.28
2022-08-09T17:56:26.591Z,2.50
2022-08-09T17:59:02.939Z,2.97
2022-08-09T18:02:03.380Z,2.72
2022-08-09T18:04:20.707Z,2.65
2022-08-09T18:06:54.947Z,3.22
2022-08-09T18:09:44.244Z,3.53
2022-08-09T18:13:38.292Z,2.72
2022-08-09T18:22:33.954Z,3.30
2022-08-09T18:25:01.775Z,2.88
2022-08-09T18:28:02.103Z,2.85
2022-08-09T18:30:39.329Z,2.83
2022-08-09T18:33:05.199Z,2.58
2022-08-09T18:35:58.176Z,3.42
2022-08-09T18:38:26.972Z,3.47
2022-08-09T18:40:55.796Z,3.75
2022-08-09T18:43:25.256Z,3.58
2022-08-09T18:46:51.369Z,3.53
2022-08-09T18:48:42.361Z,3.22
2022-08-09T18:51:10.181Z,3.33
2022-08-09T18:53:59.826Z,3.30
2022-08-09T18:56:28.549Z,2.65
2022-08-09T18:58:57.847Z,3.10
2022-08-09T19:01:32.205Z,3.22
2022-08-09T19:04:13.256Z,3.20
2022-08-09T19:06:48.857Z,3.85
2022-08-09T19:09:34.188Z,3.20
2022-08-09T19:12:09.314Z,3.92
2022-08-09T19:14:38.053Z,2.53
2022-08-09T19:17:05.621Z,2.80
2022-08-09T19:19:41.682Z,2.72
2022-08-09T19:22:09.488Z,3.72
2022-08-09T19:25:11.937Z,3.05
2022-08-09T19:27:28.745Z,2.92
2022-08-09T19:30:22.636Z,3.25
2022-08-09T19:32:44.882Z,3.05
2022-08-09T19:35:13.937Z,3.97
2022-08-09T19:37:54.831Z,4.28
2022-08-09T19:40:34.498Z,3.95
2022-08-09T19:43:05.436Z,3.83
2022-08-09T19:45:40.332Z,4.47
2022-08-09T19:48:10.935Z,4.75
2022-08-09T19:50:49.315Z,4.32
2022-08-09T19:53:20.623Z,3.40
2022-08-09T19:56:02.106Z,3.58
2022-08-09T19:58:34.311Z,3.03
2022-08-09T20:01:05.815Z,3.17
2022-08-09T20:04:36.822Z,2.72
2022-08-09T20:07:58.600Z,2.10
2022-08-09T20:10:38.486Z,2.30
2022-08-09T20:13:20.186Z,2.28
2022-08-09T20:16:35.105Z,2.08
2022-08-09T20:19:04.010Z,2.33
2022-08-09T20:25:02.592Z,2.03
2022-08-09T20:27:46.519Z,2.25
2022-08-09T20:30:32.046Z,1.75
2022-08-09T20:33:16.544Z,2.08
2022-08-09T20:35:59.114Z,2.50
2022-08-09T20:39:28.169Z,2.22
2022-08-09T20:41:49.579Z,2.20
2022-08-09T20:44:36.160Z,3.60
2022-08-09T20:47:45.261Z,2.72
2022-08-09T20:50:48.100Z,2.92
2022-08-09T20:53:18.762Z,2.65
2022-08-09T20:56:02.050Z,4.18
2022-08-09T20:58:32.901Z,3.20
2022-08-09T21:01:33.719Z,3.78
2022-08-09T21:04:14.138Z,3.10
2022-08-09T21:06:45.206Z,2.80
2022-08-09T21:09:14.055Z,3.22
2022-08-09T21:14:31.247Z,2.55
2022-08-09T21:17:00.010Z,3.60
2022-08-09T21:20:18.832Z,3.00
2022-08-09T21:22:36.287Z,3.10
2022-08-09T21:25:21.334Z,3.10
2022-08-09T21:27:52.995Z,3.35
2022-08-09T21:30:22.135Z,3.15
2022-08-09T21:48:52.888Z,3.05
2022-08-09T21:51:35.723Z,3.58
2022-08-09T21:54:03.802Z,3.40
2022-08-09T21:56:43.012Z,3.95
2022-08-09T21:59:19.122Z,2.97
2022-08-09T22:02:00.476Z,4.00
2022-08-09T22:04:55.206Z,4.03
2022-08-09T22:07:23.280Z,3.72
2022-08-09T22:10:04.787Z,3.83
2022-08-09T22:12:32.637Z,3.55
2022-08-09T22:15:00.942Z,3.80
2022-08-09T22:17:32.103Z,3.70
2022-08-09T22:20:02.660Z,4.13
2022-08-09T22:22:31.372Z,4.18
2022-08-09T22:26:06.843Z,4.32
2022-08-09T22:27:49.517Z,4.53
2022-08-09T22:30:26.373Z,4.05
2022-08-09T22:33:01.650Z,4.50
2022-08-09T22:36:01.219Z,4.13
2022-08-09T22:38:19.644Z,5.07
2022-08-09T22:40:49.081Z,4.25
2022-08-09T22:44:03.319Z,3.53
2022-08-09T22:48:13.130Z,3.97
2022-08-09T22:49:09.682Z,3.75
2022-08-09T22:51:39.592Z,4.18
2022-08-09T22:54:21.270Z,4.00
2022-08-09T22:56:50.784Z,4.20
2022-08-09T22:59:56.932Z,4.15
2022-08-09T23:02:11.250Z,3.95
2022-08-09T23:04:53.863Z,4.05
2022-08-09T23:08:27.284Z,5.28
2022-08-09T23:10:32.704Z,4.00
2022-08-09T23:13:03.699Z,4.20
2022-08-09T23:15:31.270Z,5.85
2022-08-09T23:17:58.758Z,4.22
2022-08-09T23:20:29.193Z,4.43
2022-08-09T23:22:56.689Z,3.92
2022-08-09T23:25:24.187Z,4.60
2022-08-09T23:28:14.497Z,3.83
2022-08-09T23:30:51.315Z,3.63
2022-08-09T23:33:23.332Z,4.13
2022-08-09T23:36:06.456Z,4.07
2022-08-09T23:38:48.956Z,4.03
2022-08-09T23:41:28.443Z,4.00
2022-08-09T23:43:58.879Z,3.95
2022-08-09T23:46:27.560Z,4.20
2022-08-09T23:48:55.742Z,3.90
2022-08-09T23:51:23.397Z,4.75
2022-08-09T23:53:52.535Z,3.67
2022-08-09T23:56:53.520Z,4.50
2022-08-09T23:59:08.951Z,4.45
